sensor_id;sensor_type;location;lat;lon;timestamp;P1;durP1;ratioP1;P2;durP2;ratioP2
32705;SDS011;19094;50.972;3.538;2022-12-18T00:01:51;92.82;;;41.17;;
32705;SDS011;19094;50.972;3.538;2022-12-18T00:04:21;92.45;;;39.72;;
32705;SDS011;19094;50.972;3.538;2022-12-18T00:06:48;89.47;;;40.28;;
32705;SDS011;19094;50.972;3.538;2022-12-18T00:09:14;85.95;;;38.50;;
32705;SDS011;19094;50.972;3.538;2022-12-18T00:11:41;90.57;;;39.35;;
32705;SDS011;19094;50.972;3.538;2022-12-18T00:14:06;90.15;;;39.65;;
32705;SDS011;19094;50.972;3.538;2022-12-18T00:16:33;85.75;;;37.53;;
32705;SDS011;19094;50.972;3.538;2022-12-18T00:19:01;86.97;;;38.55;;
32705;SDS011;19094;50.972;3.538;2022-12-18T00:21:28;84.28;;;38.50;;
32705;SDS011;19094;50.972;3.538;2022-12-18T00:23:55;87.45;;;38.08;;
32705;SDS011;19094;50.972;3.538;2022-12-18T00:26:25;83.00;;;38.50;;
32705;SDS011;19094;50.972;3.538;2022-12-18T00:28:52;84.18;;;37.83;;
32705;SDS011;19094;50.972;3.538;2022-12-18T00:31:21;83.55;;;37.65;;
32705;SDS011;19094;50.972;3.538;2022-12-18T00:33:48;82.88;;;36.53;;
32705;SDS011;19094;50.972;3.538;2022-12-18T00:36:18;86.93;;;38.63;;
32705;SDS011;19094;50.972;3.538;2022-12-18T00:38:46;90.75;;;38.05;;
32705;SDS011;19094;50.972;3.538;2022-12-18T00:41:13;86.65;;;37.95;;
32705;SDS011;19094;50.972;3.538;2022-12-18T00:44:00;84.15;;;38.03;;
32705;SDS011;19094;50.972;3.538;2022-12-18T00:46:26;86.20;;;36.60;;
32705;SDS011;19094;50.972;3.538;2022-12-18T00:48:52;81.80;;;37.72;;
32705;SDS011;19094;50.972;3.538;2022-12-18T00:51:17;81.75;;;36.67;;
32705;SDS011;19094;50.972;3.538;2022-12-18T00:53:43;82.88;;;37.00;;
32705;SDS011;19094;50.972;3.538;2022-12-18T00:56:09;81.95;;;35.50;;
32705;SDS011;19094;50.972;3.538;2022-12-18T00:58:34;74.68;;;33.83;;
32705;SDS011;19094;50.972;3.538;2022-12-18T01:01:00;78.05;;;34.88;;
32705;SDS011;19094;50.972;3.538;2022-12-18T01:03:25;79.75;;;35.70;;
32705;SDS011;19094;50.972;3.538;2022-12-18T01:05:51;78.03;;;34.58;;
32705;SDS011;19094;50.972;3.538;2022-12-18T01:08:17;78.65;;;35.08;;
32705;SDS011;19094;50.972;3.538;2022-12-18T01:10:42;74.47;;;34.78;;
32705;SDS011;19094;50.972;3.538;2022-12-18T01:13:08;74.47;;;33.88;;
32705;SDS011;19094;50.972;3.538;2022-12-18T01:15:33;72.15;;;33.47;;
32705;SDS011;19094;50.972;3.538;2022-12-18T01:17:59;73.82;;;32.45;;
32705;SDS011;19094;50.972;3.538;2022-12-18T01:20:25;75.38;;;31.75;;
32705;SDS011;19094;50.972;3.538;2022-12-18T01:22:50;69.80;;;31.35;;
32705;SDS011;19094;50.972;3.538;2022-12-18T01:25:16;62.95;;;29.85;;
32705;SDS011;19094;50.972;3.538;2022-12-18T01:27:42;70.70;;;31.80;;
32705;SDS011;19094;50.972;3.538;2022-12-18T01:30:07;64.60;;;30.20;;
32705;SDS011;19094;50.972;3.538;2022-12-18T01:32:34;68.43;;;31.50;;
32705;SDS011;19094;50.972;3.538;2022-12-18T01:34:59;66.15;;;31.13;;
32705;SDS011;19094;50.972;3.538;2022-12-18T01:37:25;66.18;;;30.70;;
32705;SDS011;19094;50.972;3.538;2022-12-18T01:39:54;67.07;;;31.85;;
32705;SDS011;19094;50.972;3.538;2022-12-18T01:42:20;64.72;;;31.20;;
32705;SDS011;19094;50.972;3.538;2022-12-18T01:47:51;66.03;;;30.17;;
32705;SDS011;19094;50.972;3.538;2022-12-18T01:52:59;71.63;;;32.55;;
32705;SDS011;19094;50.972;3.538;2022-12-18T01:55:32;70.00;;;30.98;;
32705;SDS011;19094;50.972;3.538;2022-12-18T01:58:03;65.57;;;30.30;;
32705;SDS011;19094;50.972;3.538;2022-12-18T02:00:29;66.22;;;30.40;;
32705;SDS011;19094;50.972;3.538;2022-12-18T02:02:55;67.80;;;31.52;;
32705;SDS011;19094;50.972;3.538;2022-12-18T02:11:10;66.60;;;30.90;;
32705;SDS011;19094;50.972;3.538;2022-12-18T02:13:43;65.38;;;30.27;;
32705;SDS011;19094;50.972;3.538;2022-12-18T02:18:59;66.53;;;30.98;;
32705;SDS011;19094;50.972;3.538;2022-12-18T02:21:49;64.85;;;30.10;;
32705;SDS011;19094;50.972;3.538;2022-12-18T02:27:07;67.43;;;31.10;;
32705;SDS011;19094;50.972;3.538;2022-12-18T02:29:49;67.07;;;31.00;;
32705;SDS011;19094;50.972;3.538;2022-12-18T02:32:19;69.07;;;31.10;;
32705;SDS011;19094;50.972;3.538;2022-12-18T02:34:54;68.15;;;30.90;;
32705;SDS011;19094;50.972;3.538;2022-12-18T02:37:22;66.43;;;31.48;;
32705;SDS011;19094;50.972;3.538;2022-12-18T02:39:50;67.55;;;30.40;;
32705;SDS011;19094;50.972;3.538;2022-12-18T02:42:19;67.32;;;32.47;;
32705;SDS011;19094;50.972;3.538;2022-12-18T02:44:46;70.20;;;31.50;;
32705;SDS011;19094;50.972;3.538;2022-12-18T02:47:15;66.50;;;31.33;;
32705;SDS011;19094;50.972;3.538;2022-12-18T03:00:19;61.08;;;28.63;;
32705;SDS011;19094;50.972;3.538;2022-12-18T03:05:17;66.50;;;30.00;;
32705;SDS011;19094;50.972;3.538;2022-12-18T03:07:59;66.53;;;30.77;;
32705;SDS011;19094;50.972;3.538;2022-12-18T03:10:29;68.75;;;31.13;;
32705;SDS011;19094;50.972;3.538;2022-12-18T03:13:03;68.85;;;29.83;;
32705;SDS011;19094;50.972;3.538;2022-12-18T03:15:38;69.18;;;31.98;;
32705;SDS011;19094;50.972;3.538;2022-12-18T03:18:19;67.90;;;32.72;;
32705;SDS011;19094;50.972;3.538;2022-12-18T03:21:02;74.72;;;32.95;;
32705;SDS011;19094;50.972;3.538;2022-12-18T03:23:32;72.78;;;33.10;;
32705;SDS011;19094;50.972;3.538;2022-12-18T03:26:03;72.32;;;33.22;;
32705;SDS011;19094;50.972;3.538;2022-12-18T03:28:32;69.50;;;33.55;;
32705;SDS011;19094;50.972;3.538;2022-12-18T03:31:02;68.53;;;34.03;;
32705;SDS011;19094;50.972;3.538;2022-12-18T03:33:34;75.85;;;34.97;;
32705;SDS011;19094;50.972;3.538;2022-12-18T03:36:10;73.38;;;34.13;;
32705;SDS011;19094;50.972;3.538;2022-12-18T03:38:37;77.38;;;35.58;;
32705;SDS011;19094;50.972;3.538;2022-12-18T03:43:49;76.43;;;34.92;;
32705;SDS011;19094;50.972;3.538;2022-12-18T03:46:20;77.70;;;34.35;;
32705;SDS011;19094;50.972;3.538;2022-12-18T03:49:04;77.43;;;34.63;;
32705;SDS011;19094;50.972;3.538;2022-12-18T03:51:42;75.05;;;33.65;;
32705;SDS011;19094;50.972;3.538;2022-12-18T03:54:15;73.97;;;34.22;;
32705;SDS011;19094;50.972;3.538;2022-12-18T03:56:44;82.28;;;35.95;;
32705;SDS011;19094;50.972;3.538;2022-12-18T03:59:15;81.10;;;33.88;;
32705;SDS011;19094;50.972;3.538;2022-12-18T04:01:50;78.82;;;33.92;;
32705;SDS011;19094;50.972;3.538;2022-12-18T04:04:19;71.03;;;33.20;;
32705;SDS011;19094;50.972;3.538;2022-12-18T04:06:46;72.28;;;32.83;;
32705;SDS011;19094;50.972;3.538;2022-12-18T04:09:14;71.07;;;32.17;;
32705;SDS011;19094;50.972;3.538;2022-12-18T04:11:41;73.05;;;31.83;;
32705;SDS011;19094;50.972;3.538;2022-12-18T04:14:09;71.30;;;33.30;;
32705;SDS011;19094;50.972;3.538;2022-12-18T04:16:36;76.65;;;34.33;;
32705;SDS011;19094;50.972;3.538;2022-12-18T04:19:04;76.65;;;32.90;;
32705;SDS011;19094;50.972;3.538;2022-12-18T04:21:30;71.43;;;33.53;;
32705;SDS011;19094;50.972;3.538;2022-12-18T04:23:56;73.60;;;34.03;;
32705;SDS011;19094;50.972;3.538;2022-12-18T04:26:21;77.05;;;34.67;;
32705;SDS011;19094;50.972;3.538;2022-12-18T04:28:47;77.70;;;35.05;;
32705;SDS011;19094;50.972;3.538;2022-12-18T04:31:13;74.03;;;34.17;;
32705;SDS011;19094;50.972;3.538;2022-12-18T04:33:41;75.05;;;34.25;;
32705;SDS011;19094;50.972;3.538;2022-12-18T04:36:07;83.43;;;37.33;;
32705;SDS011;19094;50.972;3.538;2022-12-18T04:38:32;77.18;;;35.10;;
32705;SDS011;19094;50.972;3.538;2022-12-18T04:40:58;80.47;;;35.90;;
32705;SDS011;19094;50.972;3.538;2022-12-18T04:43:24;75.70;;;37.38;;
32705;SDS011;19094;50.972;3.538;2022-12-18T04:45:49;77.72;;;36.50;;
32705;SDS011;19094;50.972;3.538;2022-12-18T04:48:15;77.45;;;35.60;;
32705;SDS011;19094;50.972;3.538;2022-12-18T04:50:41;82.32;;;36.70;;
32705;SDS011;19094;50.972;3.538;2022-12-18T04:53:07;80.57;;;35.60;;
32705;SDS011;19094;50.972;3.538;2022-12-18T04:55:32;78.95;;;37.17;;
32705;SDS011;19094;50.972;3.538;2022-12-18T04:57:58;80.13;;;36.10;;
32705;SDS011;19094;50.972;3.538;2022-12-18T05:00:24;74.70;;;34.53;;
32705;SDS011;19094;50.972;3.538;2022-12-18T05:02:49;79.60;;;33.90;;
32705;SDS011;19094;50.972;3.538;2022-12-18T05:05:15;80.07;;;35.67;;
32705;SDS011;19094;50.972;3.538;2022-12-18T05:07:41;79.43;;;36.17;;
32705;SDS011;19094;50.972;3.538;2022-12-18T05:10:06;77.00;;;34.72;;
32705;SDS011;19094;50.972;3.538;2022-12-18T05:12:32;79.03;;;35.42;;
32705;SDS011;19094;50.972;3.538;2022-12-18T05:14:58;74.20;;;35.50;;
32705;SDS011;19094;50.972;3.538;2022-12-18T05:17:24;78.38;;;35.22;;
32705;SDS011;19094;50.972;3.538;2022-12-18T05:19:49;78.22;;;35.67;;
32705;SDS011;19094;50.972;3.538;2022-12-18T05:22:15;78.50;;;35.72;;
32705;SDS011;19094;50.972;3.538;2022-12-18T05:24:41;75.40;;;35.35;;
32705;SDS011;19094;50.972;3.538;2022-12-18T05:27:06;81.80;;;35.72;;
32705;SDS011;19094;50.972;3.538;2022-12-18T05:29:32;76.53;;;36.67;;
32705;SDS011;19094;50.972;3.538;2022-12-18T05:31:57;76.15;;;35.42;;
32705;SDS011;19094;50.972;3.538;2022-12-18T05:34:23;78.97;;;35.28;;
32705;SDS011;19094;50.972;3.538;2022-12-18T05:36:49;73.82;;;35.05;;
32705;SDS011;19094;50.972;3.538;2022-12-18T05:39:14;82.22;;;36.28;;
32705;SDS011;19094;50.972;3.538;2022-12-18T05:41:40;75.25;;;34.40;;
32705;SDS011;19094;50.972;3.538;2022-12-18T05:44:05;72.22;;;34.78;;
32705;SDS011;19094;50.972;3.538;2022-12-18T05:46:31;77.30;;;34.55;;
32705;SDS011;19094;50.972;3.538;2022-12-18T05:49:00;74.63;;;35.33;;
32705;SDS011;19094;50.972;3.538;2022-12-18T05:51:28;77.38;;;35.17;;
32705;SDS011;19094;50.972;3.538;2022-12-18T05:53:54;72.75;;;33.65;;
32705;SDS011;19094;50.972;3.538;2022-12-18T05:56:20;80.00;;;33.78;;
32705;SDS011;19094;50.972;3.538;2022-12-18T05:58:47;72.00;;;33.13;;
32705;SDS011;19094;50.972;3.538;2022-12-18T06:01:18;70.43;;;31.55;;
32705;SDS011;19094;50.972;3.538;2022-12-18T06:03:45;69.63;;;32.17;;
32705;SDS011;19094;50.972;3.538;2022-12-18T06:06:18;73.13;;;34.10;;
32705;SDS011;19094;50.972;3.538;2022-12-18T06:08:47;74.97;;;33.55;;
32705;SDS011;19094;50.972;3.538;2022-12-18T06:11:17;68.85;;;31.83;;
32705;SDS011;19094;50.972;3.538;2022-12-18T06:13:44;72.18;;;31.60;;
32705;SDS011;19094;50.972;3.538;2022-12-18T06:16:11;76.05;;;32.30;;
32705;SDS011;19094;50.972;3.538;2022-12-18T06:18:37;72.18;;;32.20;;
32705;SDS011;19094;50.972;3.538;2022-12-18T06:21:02;71.25;;;33.03;;
32705;SDS011;19094;50.972;3.538;2022-12-18T06:23:28;77.13;;;35.00;;
32705;SDS011;19094;50.972;3.538;2022-12-18T06:25:54;72.03;;;32.55;;
32705;SDS011;19094;50.972;3.538;2022-12-18T06:28:19;74.28;;;34.03;;
32705;SDS011;19094;50.972;3.538;2022-12-18T06:30:46;73.93;;;32.30;;
32705;SDS011;19094;50.972;3.538;2022-12-18T06:33:13;76.47;;;33.42;;
32705;SDS011;19094;50.972;3.538;2022-12-18T06:35:39;72.50;;;31.15;;
32705;SDS011;19094;50.972;3.538;2022-12-18T06:38:05;71.70;;;32.28;;
32705;SDS011;19094;50.972;3.538;2022-12-18T06:40:31;66.28;;;31.17;;
32705;SDS011;19094;50.972;3.538;2022-12-18T06:42:56;73.40;;;30.83;;
32705;SDS011;19094;50.972;3.538;2022-12-18T06:45:22;70.20;;;30.92;;
32705;SDS011;19094;50.972;3.538;2022-12-18T06:47:48;70.15;;;32.03;;
32705;SDS011;19094;50.972;3.538;2022-12-18T06:50:13;68.38;;;31.40;;
32705;SDS011;19094;50.972;3.538;2022-12-18T06:52:39;67.20;;;30.98;;
32705;SDS011;19094;50.972;3.538;2022-12-18T06:55:08;66.68;;;31.20;;
32705;SDS011;19094;50.972;3.538;2022-12-18T06:57:34;62.13;;;29.63;;
32705;SDS011;19094;50.972;3.538;2022-12-18T07:00:00;63.83;;;29.73;;
32705;SDS011;19094;50.972;3.538;2022-12-18T07:02:26;65.07;;;30.30;;
32705;SDS011;19094;50.972;3.538;2022-12-18T07:04:51;59.88;;;27.55;;
32705;SDS011;19094;50.972;3.538;2022-12-18T07:07:17;70.32;;;28.90;;
32705;SDS011;19094;50.972;3.538;2022-12-18T07:09:43;58.38;;;28.00;;
32705;SDS011;19094;50.972;3.538;2022-12-18T07:12:08;59.65;;;27.50;;
32705;SDS011;19094;50.972;3.538;2022-12-18T07:14:34;59.80;;;27.15;;
32705;SDS011;19094;50.972;3.538;2022-12-18T07:17:00;63.60;;;31.05;;
32705;SDS011;19094;50.972;3.538;2022-12-18T07:19:25;63.90;;;29.73;;
32705;SDS011;19094;50.972;3.538;2022-12-18T07:21:51;63.58;;;28.73;;
32705;SDS011;19094;50.972;3.538;2022-12-18T07:24:17;58.58;;;28.33;;
32705;SDS011;19094;50.972;3.538;2022-12-18T07:26:45;59.42;;;27.10;;
32705;SDS011;19094;50.972;3.538;2022-12-18T07:29:11;57.28;;;26.17;;
32705;SDS011;19094;50.972;3.538;2022-12-18T07:31:37;56.75;;;25.83;;
32705;SDS011;19094;50.972;3.538;2022-12-18T07:34:02;52.03;;;25.13;;
32705;SDS011;19094;50.972;3.538;2022-12-18T07:36:28;50.63;;;25.02;;
32705;SDS011;19094;50.972;3.538;2022-12-18T07:38:53;56.75;;;26.27;;
32705;SDS011;19094;50.972;3.538;2022-12-18T07:41:19;50.33;;;24.25;;
32705;SDS011;19094;50.972;3.538;2022-12-18T07:43:45;63.72;;;29.67;;
32705;SDS011;19094;50.972;3.538;2022-12-18T07:46:12;53.08;;;24.75;;
32705;SDS011;19094;50.972;3.538;2022-12-18T07:48:39;49.33;;;23.77;;
32705;SDS011;19094;50.972;3.538;2022-12-18T07:51:06;44.95;;;22.77;;
32705;SDS011;19094;50.972;3.538;2022-12-18T07:53:32;47.72;;;22.23;;
32705;SDS011;19094;50.972;3.538;2022-12-18T07:55:59;44.65;;;21.55;;
32705;SDS011;19094;50.972;3.538;2022-12-18T07:58:28;44.38;;;21.85;;
32705;SDS011;19094;50.972;3.538;2022-12-18T08:00:53;49.65;;;21.90;;
32705;SDS011;19094;50.972;3.538;2022-12-18T08:03:19;44.92;;;21.17;;
32705;SDS011;19094;50.972;3.538;2022-12-18T08:05:45;45.03;;;21.75;;
32705;SDS011;19094;50.972;3.538;2022-12-18T08:08:10;48.70;;;22.52;;
32705;SDS011;19094;50.972;3.538;2022-12-18T08:10:37;44.75;;;21.15;;
32705;SDS011;19094;50.972;3.538;2022-12-18T08:13:02;46.88;;;20.10;;
32705;SDS011;19094;50.972;3.538;2022-12-18T08:15:28;51.78;;;20.90;;
32705;SDS011;19094;50.972;3.538;2022-12-18T08:17:56;44.85;;;22.40;;
32705;SDS011;19094;50.972;3.538;2022-12-18T08:20:22;43.50;;;20.83;;
32705;SDS011;19094;50.972;3.538;2022-12-18T08:22:48;45.50;;;21.55;;
32705;SDS011;19094;50.972;3.538;2022-12-18T08:25:13;47.97;;;21.48;;
32705;SDS011;19094;50.972;3.538;2022-12-18T08:27:42;42.45;;;20.10;;
32705;SDS011;19094;50.972;3.538;2022-12-18T08:30:08;44.83;;;20.83;;
32705;SDS011;19094;50.972;3.538;2022-12-18T08:32:34;47.83;;;22.23;;
32705;SDS011;19094;50.972;3.538;2022-12-18T08:35:00;48.83;;;23.30;;
32705;SDS011;19094;50.972;3.538;2022-12-18T08:37:25;50.53;;;22.33;;
32705;SDS011;19094;50.972;3.538;2022-12-18T08:39:51;57.20;;;25.13;;
32705;SDS011;19094;50.972;3.538;2022-12-18T08:42:17;51.60;;;25.23;;
32705;SDS011;19094;50.972;3.538;2022-12-18T08:45:01;50.72;;;22.98;;
32705;SDS011;19094;50.972;3.538;2022-12-18T08:47:27;50.20;;;25.13;;
32705;SDS011;19094;50.972;3.538;2022-12-18T08:49:53;57.33;;;26.42;;
32705;SDS011;19094;50.972;3.538;2022-12-18T08:52:19;51.78;;;26.02;;
32705;SDS011;19094;50.972;3.538;2022-12-18T08:54:45;50.70;;;23.80;;
32705;SDS011;19094;50.972;3.538;2022-12-18T08:57:11;44.10;;;21.88;;
32705;SDS011;19094;50.972;3.538;2022-12-18T08:59:36;39.47;;;18.77;;
32705;SDS011;19094;50.972;3.538;2022-12-18T09:02:02;38.88;;;19.17;;
32705;SDS011;19094;50.972;3.538;2022-12-18T09:04:27;42.55;;;18.63;;
32705;SDS011;19094;50.972;3.538;2022-12-18T09:06:53;39.95;;;18.70;;
32705;SDS011;19094;50.972;3.538;2022-12-18T09:09:20;43.13;;;18.73;;
32705;SDS011;19094;50.972;3.538;2022-12-18T09:11:46;45.70;;;21.10;;
32705;SDS011;19094;50.972;3.538;2022-12-18T09:14:11;40.97;;;18.83;;
32705;SDS011;19094;50.972;3.538;2022-12-18T09:16:37;36.08;;;17.23;;
32705;SDS011;19094;50.972;3.538;2022-12-18T09:19:03;36.95;;;17.75;;
32705;SDS011;19094;50.972;3.538;2022-12-18T09:21:31;40.75;;;19.00;;
32705;SDS011;19094;50.972;3.538;2022-12-18T09:23:58;34.60;;;16.90;;
32705;SDS011;19094;50.972;3.538;2022-12-18T09:26:25;38.35;;;17.13;;
32705;SDS011;19094;50.972;3.538;2022-12-18T09:28:51;40.25;;;19.60;;
32705;SDS011;19094;50.972;3.538;2022-12-18T09:31:17;35.58;;;16.73;;
32705;SDS011;19094;50.972;3.538;2022-12-18T09:33:45;33.75;;;16.95;;
32705;SDS011;19094;50.972;3.538;2022-12-18T09:36:11;43.92;;;19.95;;
32705;SDS011;19094;50.972;3.538;2022-12-18T09:38:39;42.28;;;20.83;;
32705;SDS011;19094;50.972;3.538;2022-12-18T09:43:45;47.80;;;21.30;;
32705;SDS011;19094;50.972;3.538;2022-12-18T09:46:47;47.08;;;22.23;;
32705;SDS011;19094;50.972;3.538;2022-12-18T09:49:10;37.58;;;18.30;;
32705;SDS011;19094;50.972;3.538;2022-12-18T09:52:26;33.67;;;15.27;;
32705;SDS011;19094;50.972;3.538;2022-12-18T09:54:54;29.63;;;13.50;;
32705;SDS011;19094;50.972;3.538;2022-12-18T09:57:25;28.20;;;12.98;;
32705;SDS011;19094;50.972;3.538;2022-12-18T10:00:33;25.45;;;13.35;;
32705;SDS011;19094;50.972;3.538;2022-12-18T10:02:50;30.30;;;13.30;;
32705;SDS011;19094;50.972;3.538;2022-12-18T10:08:27;28.85;;;14.20;;
32705;SDS011;19094;50.972;3.538;2022-12-18T10:13:45;26.85;;;13.85;;
32705;SDS011;19094;50.972;3.538;2022-12-18T10:16:35;30.48;;;12.77;;
32705;SDS011;19094;50.972;3.538;2022-12-18T10:19:03;27.20;;;13.45;;
32705;SDS011;19094;50.972;3.538;2022-12-18T10:21:42;29.98;;;13.82;;
32705;SDS011;19094;50.972;3.538;2022-12-18T10:27:14;29.58;;;14.43;;
32705;SDS011;19094;50.972;3.538;2022-12-18T10:29:46;30.17;;;14.77;;
32705;SDS011;19094;50.972;3.538;2022-12-18T10:32:16;34.92;;;16.27;;
32705;SDS011;19094;50.972;3.538;2022-12-18T10:34:48;32.00;;;14.60;;
32705;SDS011;19094;50.972;3.538;2022-12-18T10:37:20;36.42;;;16.38;;
32705;SDS011;19094;50.972;3.538;2022-12-18T10:40:07;32.25;;;15.13;;
32705;SDS011;19094;50.972;3.538;2022-12-18T10:42:37;31.85;;;15.02;;
32705;SDS011;19094;50.972;3.538;2022-12-18T10:45:10;32.33;;;14.80;;
32705;SDS011;19094;50.972;3.538;2022-12-18T10:47:47;36.28;;;15.95;;
32705;SDS011;19094;50.972;3.538;2022-12-18T10:50:34;36.92;;;15.43;;
32705;SDS011;19094;50.972;3.538;2022-12-18T10:53:03;30.75;;;15.13;;
32705;SDS011;19094;50.972;3.538;2022-12-18T10:55:31;35.42;;;16.10;;
32705;SDS011;19094;50.972;3.538;2022-12-18T10:59:00;33.17;;;15.07;;
32705;SDS011;19094;50.972;3.538;2022-12-18T11:01:12;66.05;;;28.77;;
32705;SDS011;19094;50.972;3.538;2022-12-18T11:03:40;34.63;;;16.35;;
32705;SDS011;19094;50.972;3.538;2022-12-18T11:06:25;31.45;;;14.90;;
32705;SDS011;19094;50.972;3.538;2022-12-18T11:09:17;31.77;;;15.20;;
32705;SDS011;19094;50.972;3.538;2022-12-18T11:11:55;29.63;;;15.65;;
32705;SDS011;19094;50.972;3.538;2022-12-18T11:14:25;33.70;;;16.13;;
32705;SDS011;19094;50.972;3.538;2022-12-18T11:16:55;36.00;;;16.25;;
32705;SDS011;19094;50.972;3.538;2022-12-18T11:19:26;33.67;;;16.08;;
32705;SDS011;19094;50.972;3.538;2022-12-18T11:21:56;38.33;;;17.97;;
32705;SDS011;19094;50.972;3.538;2022-12-18T11:24:35;35.33;;;16.52;;
32705;SDS011;19094;50.972;3.538;2022-12-18T11:27:02;32.85;;;16.98;;
32705;SDS011;19094;50.972;3.538;2022-12-18T11:32:19;38.28;;;17.40;;
32705;SDS011;19094;50.972;3.538;2022-12-18T11:35:27;37.10;;;17.50;;
32705;SDS011;19094;50.972;3.538;2022-12-18T11:41:32;39.22;;;17.20;;
32705;SDS011;19094;50.972;3.538;2022-12-18T11:44:08;38.15;;;17.48;;
32705;SDS011;19094;50.972;3.538;2022-12-18T11:46:40;37.55;;;17.90;;
32705;SDS011;19094;50.972;3.538;2022-12-18T11:49:22;36.45;;;17.17;;
32705;SDS011;19094;50.972;3.538;2022-12-18T11:51:56;40.50;;;19.30;;
32705;SDS011;19094;50.972;3.538;2022-12-18T11:54:30;38.13;;;18.55;;
32705;SDS011;19094;50.972;3.538;2022-12-18T11:57:22;40.28;;;19.20;;
32705;SDS011;19094;50.972;3.538;2022-12-18T12:21:52;47.05;;;20.80;;
32705;SDS011;19094;50.972;3.538;2022-12-18T12:24:43;45.47;;;20.60;;
32705;SDS011;19094;50.972;3.538;2022-12-18T12:30:06;46.83;;;20.38;;
32705;SDS011;19094;50.972;3.538;2022-12-18T12:35:29;48.72;;;22.58;;
32705;SDS011;19094;50.972;3.538;2022-12-18T12:40:45;49.92;;;23.48;;
32705;SDS011;19094;50.972;3.538;2022-12-18T12:43:53;47.15;;;22.38;;
32705;SDS011;19094;50.972;3.538;2022-12-18T12:46:22;50.67;;;22.38;;
32705;SDS011;19094;50.972;3.538;2022-12-18T12:49:01;49.90;;;22.83;;
32705;SDS011;19094;50.972;3.538;2022-12-18T12:51:32;48.58;;;22.10;;
32705;SDS011;19094;50.972;3.538;2022-12-18T12:54:01;46.97;;;22.77;;
32705;SDS011;19094;50.972;3.538;2022-12-18T12:56:40;47.38;;;22.42;;
32705;SDS011;19094;50.972;3.538;2022-12-18T12:59:13;46.95;;;22.08;;
32705;SDS011;19094;50.972;3.538;2022-12-18T13:01:49;52.13;;;22.88;;
32705;SDS011;19094;50.972;3.538;2022-12-18T13:04:41;55.72;;;24.63;;
32705;SDS011;19094;50.972;3.538;2022-12-18T13:15:48;52.88;;;25.60;;
32705;SDS011;19094;50.972;3.538;2022-12-18T13:18:32;53.30;;;24.13;;
32705;SDS011;19094;50.972;3.538;2022-12-18T13:23:28;52.25;;;23.95;;
32705;SDS011;19094;50.972;3.538;2022-12-18T13:26:42;48.10;;;22.08;;
32705;SDS011;19094;50.972;3.538;2022-12-18T13:32:00;49.53;;;22.42;;
32705;SDS011;19094;50.972;3.538;2022-12-18T13:34:19;52.35;;;24.88;;
32705;SDS011;19094;50.972;3.538;2022-12-18T13:36:50;48.78;;;22.77;;
32705;SDS011;19094;50.972;3.538;2022-12-18T13:41:48;55.22;;;24.10;;
32705;SDS011;19094;50.972;3.538;2022-12-18T13:44:32;51.55;;;22.17;;
32705;SDS011;19094;50.972;3.538;2022-12-18T13:46:58;53.60;;;22.50;;
32705;SDS011;19094;50.972;3.538;2022-12-18T13:52:00;50.70;;;24.85;;
32705;SDS011;19094;50.972;3.538;2022-12-18T13:54:36;52.38;;;22.67;;
32705;SDS011;19094;50.972;3.538;2022-12-18T13:57:05;55.17;;;23.83;;
32705;SDS011;19094;50.972;3.538;2022-12-18T13:59:50;56.25;;;24.58;;
32705;SDS011;19094;50.972;3.538;2022-12-18T14:02:17;54.70;;;25.15;;
32705;SDS011;19094;50.972;3.538;2022-12-18T14:04:46;54.00;;;22.70;;
32705;SDS011;19094;50.972;3.538;2022-12-18T14:07:26;53.95;;;22.67;;
32705;SDS011;19094;50.972;3.538;2022-12-18T14:09:54;54.00;;;24.65;;
32705;SDS011;19094;50.972;3.538;2022-12-18T14:12:29;54.80;;;24.63;;
32705;SDS011;19094;50.972;3.538;2022-12-18T14:20:57;55.13;;;22.98;;
32705;SDS011;19094;50.972;3.538;2022-12-18T14:26:02;55.45;;;24.42;;
32705;SDS011;19094;50.972;3.538;2022-12-18T14:28:49;54.67;;;24.13;;
32705;SDS011;19094;50.972;3.538;2022-12-18T14:31:19;57.70;;;24.00;;
32705;SDS011;19094;50.972;3.538;2022-12-18T14:36:16;53.85;;;23.60;;
32705;SDS011;19094;50.972;3.538;2022-12-18T14:38:47;54.55;;;23.00;;
32705;SDS011;19094;50.972;3.538;2022-12-18T14:43:46;48.95;;;21.33;;
32705;SDS011;19094;50.972;3.538;2022-12-18T14:48:54;52.28;;;22.73;;
32705;SDS011;19094;50.972;3.538;2022-12-18T14:51:21;52.08;;;23.25;;
32705;SDS011;19094;50.972;3.538;2022-12-18T14:53:58;54.92;;;23.90;;
32705;SDS011;19094;50.972;3.538;2022-12-18T14:56:29;52.55;;;22.98;;
32705;SDS011;19094;50.972;3.538;2022-12-18T15:01:47;57.80;;;24.25;;
32705;SDS011;19094;50.972;3.538;2022-12-18T15:04:28;54.25;;;22.58;;
32705;SDS011;19094;50.972;3.538;2022-12-18T15:09:40;54.70;;;23.90;;
32705;SDS011;19094;50.972;3.538;2022-12-18T15:12:20;52.08;;;23.55;;
32705;SDS011;19094;50.972;3.538;2022-12-18T15:14:50;68.57;;;23.67;;
32705;SDS011;19094;50.972;3.538;2022-12-18T15:17:20;53.00;;;23.05;;
32705;SDS011;19094;50.972;3.538;2022-12-18T15:19:48;51.05;;;21.55;;
32705;SDS011;19094;50.972;3.538;2022-12-18T15:22:21;51.95;;;21.70;;
32705;SDS011;19094;50.972;3.538;2022-12-18T15:24:50;52.13;;;22.15;;
32705;SDS011;19094;50.972;3.538;2022-12-18T15:27:24;58.20;;;23.23;;
32705;SDS011;19094;50.972;3.538;2022-12-18T15:32:35;53.45;;;22.02;;
32705;SDS011;19094;50.972;3.538;2022-12-18T15:35:23;54.70;;;22.13;;
32705;SDS011;19094;50.972;3.538;2022-12-18T15:37:49;56.00;;;23.48;;
32705;SDS011;19094;50.972;3.538;2022-12-18T15:40:20;54.58;;;22.02;;
32705;SDS011;19094;50.972;3.538;2022-12-18T15:42:48;55.30;;;22.45;;
32705;SDS011;19094;50.972;3.538;2022-12-18T15:45:36;56.35;;;22.80;;
32705;SDS011;19094;50.972;3.538;2022-12-18T15:48:01;58.85;;;24.05;;
32705;SDS011;19094;50.972;3.538;2022-12-18T15:50:29;55.40;;;22.25;;
32705;SDS011;19094;50.972;3.538;2022-12-18T15:52:55;58.33;;;22.17;;
32705;SDS011;19094;50.972;3.538;2022-12-18T15:55:21;48.72;;;21.70;;
32705;SDS011;19094;50.972;3.538;2022-12-18T15:58:08;50.13;;;21.27;;
32705;SDS011;19094;50.972;3.538;2022-12-18T16:00:35;54.35;;;22.10;;
32705;SDS011;19094;50.972;3.538;2022-12-18T16:03:03;62.85;;;24.13;;
32705;SDS011;19094;50.972;3.538;2022-12-18T16:05:30;60.63;;;23.65;;
32705;SDS011;19094;50.972;3.538;2022-12-18T16:07:56;53.67;;;21.98;;
32705;SDS011;19094;50.972;3.538;2022-12-18T16:10:23;48.47;;;22.17;;
32705;SDS011;19094;50.972;3.538;2022-12-18T16:12:50;50.50;;;21.55;;
32705;SDS011;19094;50.972;3.538;2022-12-18T16:15:16;52.97;;;21.65;;
32705;SDS011;19094;50.972;3.538;2022-12-18T16:17:42;55.67;;;22.17;;
32705;SDS011;19094;50.972;3.538;2022-12-18T16:20:12;50.90;;;21.77;;
32705;SDS011;19094;50.972;3.538;2022-12-18T16:22:40;50.97;;;20.92;;
32705;SDS011;19094;50.972;3.538;2022-12-18T16:25:10;49.63;;;20.88;;
32705;SDS011;19094;50.972;3.538;2022-12-18T16:27:40;55.15;;;21.27;;
32705;SDS011;19094;50.972;3.538;2022-12-18T16:30:06;48.05;;;19.80;;
32705;SDS011;19094;50.972;3.538;2022-12-18T16:32:37;52.03;;;22.30;;
32705;SDS011;19094;50.972;3.538;2022-12-18T16:35:02;52.63;;;22.92;;
32705;SDS011;19094;50.972;3.538;2022-12-18T16:37:28;51.13;;;21.65;;
32705;SDS011;19094;50.972;3.538;2022-12-18T16:39:54;56.13;;;22.88;;
32705;SDS011;19094;50.972;3.538;2022-12-18T16:42:19;52.78;;;22.40;;